Time;durP1;ratioP1;P1;durP2;ratioP2;P2;SDS_P1;SDS_P2;PMS_P1;PMS_P2;Temp;Humidity;BMP_temperature;BMP_pressure;BME280_temperature;BME280_humidity;BME280_pressure;Samples;Min_cycle;Max_cycle;Signal;HPM_P1;HPM_P2
2022/03/14 00:02:13;;;;;;;21.10;15.13;;;9.30;99.90;;;;;;5090743;28;20482;-57
2022/03/14 00:04:55;;;;;;;16.43;14.60;;;9.20;99.90;;;;;;5092572;28;20487;-58
2022/03/14 00:07:22;;;;;;;17.80;13.40;;;9.20;99.90;;;;;;5090394;28;20531;-60
2022/03/14 00:09:52;;;;;;;18.50;14.60;;;9.30;99.90;;;;;;5088618;28;20898;-60
2022/03/14 00:12:23;;;;;;;18.23;14.50;;;9.30;99.90;;;;;;5088786;28;20461;-60
2022/03/14 00:14:55;;;;;;;17.57;15.10;;;9.20;99.90;;;;;;5081643;28;20460;-59
2022/03/14 00:17:25;;;;;;;18.47;15.77;;;9.20;99.90;;;;;;5081005;28;20457;-60
2022/03/14 00:19:59;;;;;;;20.20;15.60;;;9.20;99.90;;;;;;5081333;28;20468;-60
2022/03/14 00:22:29;;;;;;;23.57;16.50;;;9.10;99.90;;;;;;5081078;28;20491;-60
2022/03/14 00:24:58;;;;;;;17.23;15.07;;;9.10;99.90;;;;;;5080698;28;20471;-58
2022/03/14 00:27:27;;;;;;;19.77;16.43;;;9.10;99.90;;;;;;5081117;28;20811;-60
2022/03/14 00:29:54;;;;;;;20.53;16.77;;;9.10;99.90;;;;;;5081217;28;20464;-60
2022/03/14 00:32:21;;;;;;;21.33;18.10;;;9.10;99.90;;;;;;5081518;28;20522;-60
2022/03/14 00:34:55;;;;;;;26.33;19.70;;;9.10;99.90;;;;;;5081116;28;20459;-60
2022/03/14 00:37:22;;;;;;;24.30;18.80;;;9.10;99.90;;;;;;5080801;28;20517;-60
2022/03/14 00:39:52;;;;;;;23.83;18.90;;;9.10;99.90;;;;;;5086963;28;20465;-60
2022/03/14 00:42:25;;;;;;;23.23;15.80;;;9.10;99.90;;;;;;5101824;28;20523;-56
2022/03/14 00:44:58;;;;;;;20.80;13.90;;;9.10;99.90;;;;;;5100859;28;20464;-60
2022/03/14 00:47:27;;;;;;;19.50;14.80;;;9.10;99.90;;;;;;5099673;28;20460;-60
2022/03/14 00:49:56;;;;;;;17.63;14.50;;;9.10;99.90;;;;;;5101141;28;20738;-60
2022/03/14 00:52:23;;;;;;;16.20;14.17;;;9.10;99.90;;;;;;5091812;28;20536;-60
2022/03/14 00:54:55;;;;;;;17.67;14.47;;;9.00;99.90;;;;;;5080414;28;20453;-60
2022/03/14 00:57:25;;;;;;;19.00;14.83;;;9.00;99.90;;;;;;5080340;28;20822;-60
2022/03/14 00:59:52;;;;;;;18.40;13.63;;;9.00;99.90;;;;;;5080257;28;20469;-60
2022/03/14 01:02:21;;;;;;;17.57;15.00;;;9.00;99.90;;;;;;5080241;28;20543;-59
2022/03/14 01:04:50;;;;;;;18.53;15.80;;;9.00;99.90;;;;;;5092068;28;20802;-60
2022/03/14 01:07:19;;;;;;;19.13;15.30;;;8.90;99.90;;;;;;5100707;28;20463;-60
2022/03/14 01:09:46;;;;;;;16.70;13.93;;;8.80;99.90;;;;;;5100759;28;20525;-60
2022/03/14 01:12:18;;;;;;;15.67;13.57;;;8.70;99.90;;;;;;5100493;28;20555;-60
2022/03/14 01:14:48;;;;;;;19.57;14.63;;;8.70;99.90;;;;;;5100030;28;20499;-60
2022/03/14 01:17:17;;;;;;;18.47;14.80;;;8.80;99.90;;;;;;5100433;28;20733;-60
2022/03/14 01:19:44;;;;;;;24.43;17.80;;;8.80;99.90;;;;;;5100641;28;20525;-59
2022/03/14 01:22:13;;;;;;;20.57;16.03;;;8.80;99.90;;;;;;5100861;28;20498;-60
2022/03/14 01:24:46;;;;;;;18.77;16.03;;;8.70;99.90;;;;;;5101010;28;20456;-59
2022/03/14 01:27:16;;;;;;;19.73;15.87;;;8.60;99.90;;;;;;5100582;28;20460;-60
2022/03/14 01:29:46;;;;;;;16.47;13.63;;;8.60;99.90;;;;;;5099760;28;20472;-63
2022/03/14 01:32:13;;;;;;;18.77;14.20;;;8.60;99.90;;;;;;5100573;28;20448;-58
2022/03/14 01:34:40;;;;;;;17.57;14.60;;;8.60;99.90;;;;;;5099956;28;20517;-60
2022/03/14 01:37:10;;;;;;;19.40;15.37;;;8.60;99.90;;;;;;5098863;28;20456;-61
2022/03/14 01:39:40;;;;;;;16.20;14.50;;;8.70;99.90;;;;;;5098647;28;20529;-61
2022/03/14 01:42:25;;;;;;;17.53;14.97;;;8.60;99.90;;;;;;5099192;28;20492;-61
2022/03/14 01:44:54;;;;;;;19.40;15.27;;;8.60;99.90;;;;;;5098281;28;20464;-61
2022/03/14 01:47:22;;;;;;;23.23;18.00;;;8.60;99.90;;;;;;5096830;28;20457;-61
2022/03/14 01:49:49;;;;;;;18.40;15.20;;;8.60;99.90;;;;;;5098549;28;20818;-61
2022/03/14 01:52:22;;;;;;;25.73;18.27;;;8.50;99.90;;;;;;5091889;28;20503;-61
2022/03/14 01:54:50;;;;;;;21.83;16.90;;;8.50;99.90;;;;;;5098787;28;20727;-61
2022/03/14 01:57:22;;;;;;;19.70;16.07;;;8.50;99.90;;;;;;5098288;28;20517;-61
2022/03/14 01:59:51;;;;;;;18.93;15.03;;;8.50;99.90;;;;;;5086336;28;20931;-61
2022/03/14 02:02:18;;;;;;;18.87;15.90;;;8.50;99.90;;;;;;5095227;28;20558;-61
2022/03/14 02:04:45;;;;;;;21.90;17.27;;;8.50;99.90;;;;;;5098250;28;20772;-61
2022/03/14 02:07:17;;;;;;;20.40;15.83;;;8.50;99.90;;;;;;5098484;28;20761;-61
2022/03/14 02:09:50;;;;;;;17.87;14.67;;;8.50;99.90;;;;;;5098140;28;20464;-61
2022/03/14 02:12:19;;;;;;;18.90;15.93;;;8.50;99.90;;;;;;5098660;28;20456;-61
2022/03/14 02:14:46;;;;;;;18.93;15.00;;;8.50;99.90;;;;;;5098811;28;20507;-62
2022/03/14 02:17:15;;;;;;;17.40;14.90;;;8.50;99.90;;;;;;5097170;28;20456;-60
2022/03/14 02:19:50;;;;;;;17.50;15.07;;;8.50;99.90;;;;;;5097590;28;20469;-60
2022/03/14 02:22:20;;;;;;;16.20;14.53;;;8.40;99.90;;;;;;5082146;28;20489;-61
2022/03/14 02:24:48;;;;;;;17.30;15.50;;;8.40;1.00;;;;;;5077970;28;20760;-61
2022/03/14 02:27:19;;;;;;;19.40;15.47;;;8.40;1.00;;;;;;5093264;28;20789;-61
2022/03/14 02:29:47;;;;;;;17.97;15.07;;;8.40;1.00;;;;;;5098778;28;20467;-61
2022/03/14 02:32:24;;;;;;;17.97;14.60;;;8.40;1.00;;;;;;5098582;28;20457;-61
2022/03/14 02:34:51;;;;;;;18.70;15.30;;;8.40;1.00;;;;;;5098151;28;20809;-61
2022/03/14 02:37:34;;;;;;;16.23;12.87;;;8.40;1.00;;;;;;5098549;28;20548;-61
2022/03/14 02:40:06;;;;;;;18.57;13.57;;;8.30;1.00;;;;;;5096932;28;20468;-61
2022/03/14 02:45:59;;;;;;;17.13;14.60;;;8.20;1.00;;;;;;5095247;28;20469;-60
2022/03/14 02:48:26;;;;;;;17.50;12.80;;;8.20;1.00;;;;;;5096620;28;20468;-61
2022/03/14 02:50:53;;;;;;;16.00;14.03;;;8.20;1.00;;;;;;5088671;28;20466;-61
2022/03/14 02:53:22;;;;;;;15.13;13.50;;;8.20;1.00;;;;;;5079856;28;20461;-61
2022/03/14 02:55:53;;;;;;;15.97;13.20;;;8.20;1.00;;;;;;5094507;28;20471;-61
2022/03/14 02:58:20;;;;;;;13.93;11.80;;;8.20;1.00;;;;;;5097382;28;20763;-61
2022/03/14 03:00:53;;;;;;;15.27;13.60;;;8.20;7.60;;;;;;5098146;28;20464;-61
2022/03/14 03:03:21;;;;;;;18.17;12.07;;;8.20;99.90;;;;;;5097855;28;20952;-61
2022/03/14 03:06:00;;;;;;;13.17;10.63;;;8.30;99.90;;;;;;5093350;28;20777;-61
2022/03/14 03:08:35;;;;;;;16.13;12.17;;;8.30;1.00;;;;;;5079316;28;20460;-62
2022/03/14 03:11:08;;;;;;;18.43;12.40;;;8.30;1.00;;;;;;5078563;28;20466;-62
2022/03/14 03:13:36;;;;;;;14.10;10.00;;;8.30;99.90;;;;;;5078745;28;20468;-62
2022/03/14 03:16:05;;;;;;;21.63;12.60;;;8.30;99.90;;;;;;5077908;28;20492;-62
2022/03/14 03:18:32;;;;;;;13.63;10.90;;;8.40;1.00;;;;;;5077614;28;20465;-62
2022/03/14 03:20:59;;;;;;;13.23;10.20;;;8.30;99.90;;;;;;5097592;28;20513;-62
2022/03/14 03:23:27;;;;;;;13.60;11.77;;;8.40;99.90;;;;;;5090565;28;20457;-62
2022/03/14 03:26:00;;;;;;;13.50;10.30;;;8.40;1.00;;;;;;5077673;28;20814;-62
2022/03/14 03:28:27;;;;;;;16.90;10.27;;;8.40;1.00;;;;;;5077443;28;20511;-62
2022/03/14 03:30:54;;;;;;;15.20;12.20;;;8.40;1.00;;;;;;5091693;28;20471;-61
2022/03/14 03:33:24;;;;;;;15.70;10.83;;;8.40;1.00;;;;;;5101199;28;20530;-61
2022/03/14 03:35:54;;;;;;;13.60;10.87;;;8.30;99.90;;;;;;5101907;28;20464;-61
2022/03/14 03:38:21;;;;;;;12.77;11.20;;;8.30;1.00;;;;;;5101845;28;20497;-61
2022/03/14 03:40:48;;;;;;;16.13;10.63;;;8.30;58.00;;;;;;5101868;28;20456;-61
2022/03/14 03:43:16;;;;;;;17.50;11.43;;;8.30;99.90;;;;;;5101463;28;20496;-60
2022/03/14 03:45:48;;;;;;;15.43;12.40;;;8.20;99.90;;;;;;5101225;28;20525;-59
2022/03/14 03:48:18;;;;;;;12.50;10.30;;;8.20;99.90;;;;;;5100612;28;20483;-60
2022/03/14 03:50:49;;;;;;;18.37;12.03;;;8.20;99.90;;;;;;5101076;28;20452;-59
2022/03/14 03:53:17;;;;;;;14.13;11.50;;;8.20;99.90;;;;;;5085847;28;20442;-60
2022/03/14 03:55:48;;;;;;;14.63;10.77;;;8.30;99.90;;;;;;5093251;28;20752;-60
2022/03/14 03:58:24;;;;;;;11.37;9.33;;;8.30;99.90;;;;;;5081343;28;20496;-60
2022/03/14 04:00:52;;;;;;;10.90;9.80;;;8.30;99.90;;;;;;5080245;28;20897;-61
2022/03/14 04:03:21;;;;;;;13.33;9.27;;;8.20;99.90;;;;;;5079797;28;20600;-61
2022/03/14 04:05:54;;;;;;;12.20;9.60;;;8.20;99.90;;;;;;5080334;28;20461;-60
2022/03/14 04:08:30;;;;;;;13.33;9.37;;;8.20;99.90;;;;;;5080932;28;20461;-61
2022/03/14 04:11:03;;;;;;;10.50;8.33;;;8.20;99.90;;;;;;5079703;28;20465;-59
2022/03/14 04:13:34;;;;;;;11.93;9.80;;;8.10;99.90;;;;;;5080477;28;20469;-60
2022/03/14 04:16:04;;;;;;;8.70;7.80;;;8.10;99.90;;;;;;5080288;28;20461;-56
2022/03/14 04:18:33;;;;;;;9.33;7.23;;;8.10;99.90;;;;;;5079913;28;20465;-60
2022/03/14 04:21:00;;;;;;;11.07;7.90;;;8.10;99.90;;;;;;5079688;28;20559;-60
2022/03/14 04:23:31;;;;;;;8.07;5.47;;;8.10;99.90;;;;;;5080004;28;20493;-61
2022/03/14 04:25:58;;;;;;;6.03;5.23;;;8.10;99.90;;;;;;5079765;28;20469;-61
2022/03/14 04:28:28;;;;;;;7.03;5.50;;;8.00;99.90;;;;;;5091772;28;20961;-61
2022/03/14 04:31:05;;;;;;;8.70;5.90;;;8.00;99.90;;;;;;5098692;28;20464;-59
2022/03/14 04:33:32;;;;;;;8.13;5.87;;;8.00;61.70;;;;;;5094620;28;20458;-61
2022/03/14 04:36:00;;;;;;;8.47;5.83;;;8.00;1.00;;;;;;5085639;28;20490;-61
2022/03/14 04:38:29;;;;;;;6.33;5.33;;;8.00;1.00;;;;;;5099836;28;20471;-60
2022/03/14 04:40:56;;;;;;;7.30;5.73;;;8.00;1.00;;;;;;5099659;28;20517;-60
2022/03/14 04:43:24;;;;;;;7.07;5.80;;;8.00;1.00;;;;;;5098919;28;20528;-59
2022/03/14 04:45:54;;;;;;;7.00;5.60;;;8.00;99.90;;;;;;5100086;28;20492;-60
2022/03/14 04:48:23;;;;;;;10.53;6.47;;;7.90;99.90;;;;;;5099038;28;20495;-60
2022/03/14 04:50:53;;;;;;;9.17;6.00;;;7.90;99.90;;;;;;5098194;28;20468;-61
2022/03/14 04:53:20;;;;;;;13.57;9.57;;;7.90;99.90;;;;;;5099474;28;20521;-61
2022/03/14 04:55:48;;;;;;;9.53;6.90;;;7.90;99.90;;;;;;5090958;28;20461;-60
2022/03/14 04:58:16;;;;;;;6.07;5.10;;;7.90;99.90;;;;;;5079759;28;20526;-61
2022/03/14 05:00:45;;;;;;;7.13;6.43;;;7.90;99.90;;;;;;5079270;28;20504;-60
2022/03/14 05:03:13;;;;;;;7.20;5.70;;;7.90;99.90;;;;;;5079002;28;20501;-61
2022/03/14 05:05:42;;;;;;;8.43;6.40;;;7.90;99.90;;;;;;5079365;28;20462;-62
2022/03/14 05:08:11;;;;;;;6.50;5.80;;;7.90;99.90;;;;;;5089412;28;20452;-60
2022/03/14 05:10:42;;;;;;;8.80;6.27;;;8.00;99.90;;;;;;5099670;28;20464;-61
2022/03/14 05:13:15;;;;;;;6.50;5.90;;;8.00;99.90;;;;;;5099606;28;20457;-62
2022/03/14 05:15:43;;;;;;;7.90;6.50;;;8.10;99.90;;;;;;5099576;28;20489;-62
2022/03/14 05:18:10;;;;;;;7.83;7.13;;;8.10;99.90;;;;;;5098985;28;20464;-62
2022/03/14 05:20:37;;;;;;;6.80;6.10;;;8.20;99.90;;;;;;5097589;28;20522;-62
2022/03/14 05:23:23;;;;;;;9.50;7.80;;;8.20;99.90;;;;;;5088000;28;21174;-62
2022/03/14 05:25:56;;;;;;;8.00;7.30;;;8.20;99.90;;;;;;5079226;28;20462;-63
2022/03/14 05:28:25;;;;;;;7.53;6.83;;;8.20;99.90;;;;;;5095850;28;20801;-63
2022/03/14 05:30:55;;;;;;;7.97;7.20;;;8.20;99.90;;;;;;5098912;28;20547;-62
2022/03/14 05:33:22;;;;;;;7.63;6.93;;;8.20;99.90;;;;;;5087907;28;20452;-61
2022/03/14 05:35:54;;;;;;;8.60;7.80;;;8.20;64.80;;;;;;5098110;28;20456;-61
2022/03/14 05:38:24;;;;;;;8.77;7.50;;;8.20;1.00;;;;;;5098366;28;20504;-61
2022/03/14 05:40:54;;;;;;;8.67;7.77;;;8.20;99.90;;;;;;5090733;28;20459;-61
2022/03/14 05:43:36;;;;;;;8.20;7.43;;;8.20;99.90;;;;;;5096893;28;20613;-61
2022/03/14 05:46:04;;;;;;;8.70;7.90;;;8.20;1.00;;;;;;5087677;28;20484;-61
2022/03/14 05:48:36;;;;;;;8.70;7.80;;;8.10;99.90;;;;;;5086864;28;20460;-61
2022/03/14 05:51:03;;;;;;;12.57;9.10;;;8.10;99.90;;;;;;5093807;28;20841;-61
2022/03/14 05:53:37;;;;;;;10.60;9.60;;;8.20;99.90;;;;;;5086949;28;20551;-61
2022/03/14 05:56:05;;;;;;;9.93;8.80;;;8.10;1.00;;;;;;5087558;28;20460;-60
2022/03/14 05:58:35;;;;;;;11.40;10.40;;;8.20;20.50;;;;;;5090222;28;20548;-61
2022/03/14 06:01:05;;;;;;;12.70;10.60;;;8.20;99.90;;;;;;5089095;28;20517;-60
2022/03/14 06:03:34;;;;;;;11.43;10.33;;;8.20;1.00;;;;;;5087456;28;20585;-61
2022/03/14 06:06:02;;;;;;;12.73;11.17;;;8.10;1.00;;;;;;5087784;28;20492;-61
2022/03/14 06:08:36;;;;;;;12.13;10.93;;;8.20;99.90;;;;;;5086534;28;20953;-61
2022/03/14 06:11:08;;;;;;;12.00;10.90;;;8.20;99.90;;;;;;5093626;28;20522;-60
2022/03/14 06:13:35;;;;;;;13.33;12.00;;;8.20;1.00;;;;;;5084544;28;20438;-61
2022/03/14 06:16:08;;;;;;;13.27;11.97;;;8.20;1.00;;;;;;5089753;28;20912;-61
2022/03/14 06:18:38;;;;;;;11.73;10.53;;;8.30;99.90;;;;;;5085483;28;20654;-61
2022/03/14 06:21:15;;;;;;;12.40;11.10;;;8.30;99.90;;;;;;5081589;28;20507;-61
2022/03/14 06:23:48;;;;;;;12.23;10.97;;;8.20;1.00;;;;;;5085120;28;20572;-61
2022/03/14 06:26:15;;;;;;;14.00;12.37;;;8.20;99.90;;;;;;5085985;28;20463;-61
2022/03/14 06:28:44;;;;;;;12.70;11.50;;;8.20;62.70;;;;;;5086828;28;20548;-61
2022/03/14 06:31:14;;;;;;;13.00;11.70;;;8.20;99.90;;;;;;5088078;28;20457;-61
2022/03/14 06:33:44;;;;;;;15.93;11.77;;;8.20;99.90;;;;;;5085490;28;20453;-61
2022/03/14 06:36:14;;;;;;;13.67;12.30;;;8.20;1.00;;;;;;5085011;28;21343;-61
2022/03/14 06:38:41;;;;;;;12.00;10.80;;;8.30;1.00;;;;;;5084971;28;20515;-62
2022/03/14 06:41:12;;;;;;;12.77;11.47;;;8.20;1.00;;;;;;5092176;28;20499;-60
2022/03/14 06:43:42;;;;;;;12.87;11.57;;;8.20;1.00;;;;;;5080717;28;20488;-61
2022/03/14 06:46:14;;;;;;;11.47;10.37;;;8.20;99.90;;;;;;5087784;28;20932;-61
2022/03/14 06:48:41;;;;;;;12.57;11.27;;;8.20;1.00;;;;;;5088689;28;20465;-62
2022/03/14 06:51:08;;;;;;;11.97;10.50;;;8.20;1.00;;;;;;5081161;28;20496;-62
2022/03/14 06:53:35;;;;;;;11.43;10.20;;;8.30;1.00;;;;;;5092851;28;20453;-61
2022/03/14 06:56:05;;;;;;;11.87;9.97;;;8.20;3.30;;;;;;5085421;28;20465;-61
2022/03/14 06:58:47;;;;;;;9.60;8.73;;;8.20;1.00;;;;;;5088257;28;20519;-60
2022/03/14 07:01:18;;;;;;;9.63;8.43;;;8.20;99.90;;;;;;5080190;28;20468;-61
2022/03/14 07:03:45;;;;;;;9.03;7.90;;;8.30;1.00;;;;;;5096774;28;20845;-61
2022/03/14 07:06:12;;;;;;;10.07;7.53;;;8.20;99.90;;;;;;5088550;28;20552;-61
2022/03/14 07:08:46;;;;;;;8.07;7.27;;;8.30;1.00;;;;;;5076473;28;20805;-59
2022/03/14 07:11:13;;;;;;;8.80;8.00;;;8.20;1.00;;;;;;5076943;28;20901;-60
2022/03/14 07:13:55;;;;;;;11.37;8.17;;;8.30;1.00;;;;;;5093453;28;20919;-61
2022/03/14 07:16:22;;;;;;;8.20;7.20;;;8.30;1.00;;;;;;5095218;28;20530;-61
2022/03/14 07:18:52;;;;;;;8.83;7.93;;;8.30;99.90;;;;;;5093794;28;20476;-61
2022/03/14 07:21:28;;;;;;;11.20;8.67;;;8.30;99.90;;;;;;5097033;28;20460;-58
2022/03/14 07:23:56;;;;;;;11.43;7.63;;;8.40;12.70;;;;;;5096332;28;20491;-58
2022/03/14 07:26:23;;;;;;;10.90;8.10;;;8.40;99.90;;;;;;5082217;28;20859;-56
2022/03/14 07:29:06;;;;;;;15.50;8.50;;;8.50;99.90;;;;;;5077051;28;20845;-60
2022/03/14 07:31:37;;;;;;;9.90;7.40;;;8.40;99.90;;;;;;5059833;28;20906;-59
2022/03/14 07:34:06;;;;;;;12.80;8.13;;;8.40;99.90;;;;;;5076944;28;20879;-58
2022/03/14 07:36:34;;;;;;;11.43;7.97;;;8.40;99.90;;;;;;5076764;28;20547;-57
2022/03/14 07:39:04;;;;;;;8.47;7.67;;;8.40;38.40;;;;;;5076770;28;20465;-59
2022/03/14 07:41:33;;;;;;;11.20;8.10;;;8.50;82.40;;;;;;5076670;28;20526;-59
2022/03/14 07:44:07;;;;;;;10.57;8.37;;;8.60;18.60;;;;;;5076346;28;20493;-59
2022/03/14 07:46:36;;;;;;;8.80;7.90;;;8.60;1.00;;;;;;5083788;28;20467;-61
2022/03/14 07:49:05;;;;;;;9.13;8.07;;;8.70;1.00;;;;;;5094396;28;20468;-60
2022/03/14 07:51:33;;;;;;;11.33;7.50;;;8.70;1.00;;;;;;5077849;28;20472;-60
2022/03/14 07:54:00;;;;;;;8.40;7.60;;;8.70;99.90;;;;;;5095928;28;20905;-60
2022/03/14 07:56:27;;;;;;;10.17;7.23;;;8.70;99.90;;;;;;5095379;28;20517;-57
2022/03/14 07:59:03;;;;;;;8.47;7.53;;;8.70;99.90;;;;;;5075565;28;20467;-58
2022/03/14 08:01:40;;;;;;;9.60;8.13;;;8.60;99.90;;;;;;5078257;28;20461;-60
2022/03/14 08:04:12;;;;;;;10.30;8.03;;;8.60;99.90;;;;;;5076002;28;20558;-60
2022/03/14 08:06:42;;;;;;;11.23;9.00;;;8.60;99.90;;;;;;5076446;28;20463;-60
2022/03/14 08:09:12;;;;;;;10.57;8.60;;;8.60;99.90;;;;;;5076162;28;20512;-60
2022/03/14 08:11:42;;;;;;;10.33;8.03;;;8.60;99.90;;;;;;5077047;28;20556;-59
2022/03/14 08:14:09;;;;;;;11.57;7.70;;;8.60;99.90;;;;;;5083127;28;20751;-59
2022/03/14 08:16:41;;;;;;;10.70;7.63;;;8.60;99.90;;;;;;5096238;28;20457;-58
2022/03/14 08:19:11;;;;;;;8.47;6.77;;;8.60;99.90;;;;;;5098180;28;20468;-57
2022/03/14 08:21:38;;;;;;;10.67;7.40;;;8.60;99.90;;;;;;5089777;28;20897;-61
2022/03/14 08:24:08;;;;;;;14.07;8.20;;;8.70;99.90;;;;;;5091973;28;20492;-61
2022/03/14 08:26:37;;;;;;;9.87;7.87;;;8.80;99.90;;;;;;5100067;28;20464;-61
2022/03/14 08:29:06;;;;;;;7.63;6.30;;;8.90;99.90;;;;;;5090557;28;20776;-61
2022/03/14 08:31:34;;;;;;;11.73;6.97;;;9.00;99.90;;;;;;5080002;28;20473;-62
2022/03/14 08:34:06;;;;;;;12.50;6.90;;;9.10;47.70;;;;;;5078811;28;20943;-62
2022/03/14 08:36:40;;;;;;;9.13;6.40;;;9.00;11.00;;;;;;5080174;28;20465;-61
2022/03/14 08:39:16;;;;;;;12.47;6.90;;;9.20;8.20;;;;;;5079417;28;20464;-62
2022/03/14 08:41:49;;;;;;;10.90;6.93;;;9.00;1.00;;;;;;5085916;28;20819;-62
2022/03/14 08:44:16;;;;;;;11.63;7.50;;;9.20;1.00;;;;;;5099500;28;20602;-62
2022/03/14 08:46:52;;;;;;;12.63;7.80;;;9.20;1.00;;;;;;5099372;28;20467;-59
2022/03/14 08:49:20;;;;;;;12.27;8.20;;;9.20;1.00;;;;;;5098714;28;20517;-61
2022/03/14 08:51:47;;;;;;;14.93;9.20;;;9.30;1.00;;;;;;5099348;28;20456;-61
2022/03/14 08:54:20;;;;;;;13.00;8.40;;;9.30;1.00;;;;;;5083447;28;20457;-58
2022/03/14 08:57:04;;;;;;;11.70;7.83;;;9.40;1.00;;;;;;5079296;28;20518;-59
2022/03/14 08:59:31;;;;;;;11.37;8.30;;;9.40;1.00;;;;;;5077876;28;20461;-60
2022/03/14 09:02:02;;;;;;;12.00;8.80;;;9.40;1.00;;;;;;5079411;28;20461;-61
2022/03/14 09:04:30;;;;;;;11.87;9.30;;;9.40;1.00;;;;;;5076721;28;20501;-60
2022/03/14 09:06:59;;;;;;;11.30;8.63;;;9.50;1.00;;;;;;5079174;28;20461;-60
2022/03/14 09:09:29;;;;;;;12.47;9.40;;;9.30;1.00;;;;;;5078992;28;20465;-62
2022/03/14 09:11:56;;;;;;;12.20;8.50;;;9.30;1.00;;;;;;5079003;28;20727;-62
2022/03/14 09:14:28;;;;;;;10.97;8.70;;;9.40;1.00;;;;;;5078520;28;20503;-60
2022/03/14 09:16:55;;;;;;;10.80;8.50;;;9.50;1.00;;;;;;5078794;28;20483;-61
2022/03/14 09:19:22;;;;;;;14.80;11.37;;;9.50;1.00;;;;;;5078408;28;20770;-62
2022/03/14 09:21:58;;;;;;;11.50;10.30;;;9.50;1.00;;;;;;5078775;28;20464;-62
2022/03/14 09:24:32;;;;;;;14.60;12.40;;;9.50;1.00;;;;;;5077855;28;20485;-62
2022/03/14 09:27:03;;;;;;;10.93;9.00;;;9.60;1.00;;;;;;5080389;28;20465;-61
2022/03/14 09:29:30;;;;;;;11.57;10.37;;;9.50;1.00;;;;;;5078820;28;20724;-62
2022/03/14 09:32:00;;;;;;;14.50;9.67;;;9.40;1.00;;;;;;5077999;28;20511;-62
2022/03/14 09:34:27;;;;;;;12.20;9.60;;;9.40;1.00;;;;;;5078697;28;20476;-62
2022/03/14 09:36:59;;;;;;;11.63;10.23;;;9.40;1.00;;;;;;5077992;28;20519;-62
2022/03/14 09:39:30;;;;;;;11.60;10.43;;;9.40;1.00;;;;;;5078454;28;20529;-62
2022/03/14 09:42:00;;;;;;;12.10;10.67;;;9.50;1.00;;;;;;5085121;28;20469;-62
2022/03/14 09:44:30;;;;;;;15.60;9.97;;;9.60;1.00;;;;;;5086875;28;20853;-62
2022/03/14 09:47:07;;;;;;;15.47;10.03;;;9.70;1.00;;;;;;5078176;28;20774;-62
2022/03/14 09:49:36;;;;;;;9.90;8.90;;;9.90;1.00;;;;;;5077915;28;20547;-62
2022/03/14 09:52:08;;;;;;;11.03;8.97;;;10.00;1.00;;;;;;5083665;28;20963;-62
2022/03/14 09:54:46;;;;;;;14.43;9.50;;;10.00;1.00;;;;;;5094592;28;20452;-62
2022/03/14 09:57:29;;;;;;;12.57;8.70;;;10.00;1.00;;;;;;5085068;28;20457;-62
2022/03/14 09:59:57;;;;;;;10.87;8.30;;;10.00;1.00;;;;;;5078061;28;20859;-63
2022/03/14 10:02:26;;;;;;;12.80;10.67;;;9.90;1.00;;;;;;5077605;28;20496;-63
2022/03/14 10:05:06;;;;;;;10.77;9.67;;;9.80;1.00;;;;;;5077398;28;20500;-63
2022/03/14 10:07:40;;;;;;;11.33;8.67;;;9.70;1.00;;;;;;5077770;28;20484;-63
2022/03/14 10:10:08;;;;;;;14.50;9.70;;;9.60;1.00;;;;;;5077543;28;20867;-63
2022/03/14 10:12:40;;;;;;;14.20;9.63;;;9.50;1.00;;;;;;5077831;28;20461;-63
2022/03/14 10:15:10;;;;;;;10.17;8.27;;;9.50;1.00;;;;;;5077368;28;20469;-63
2022/03/14 10:17:37;;;;;;;8.00;7.20;;;9.50;1.00;;;;;;5077443;28;20469;-62
2022/03/14 10:20:07;;;;;;;7.20;6.00;;;9.60;1.00;;;;;;5078210;28;20515;-63
2022/03/14 10:22:40;;;;;;;8.20;6.40;;;9.70;1.00;;;;;;5077248;28;20552;-63
2022/03/14 10:25:11;;;;;;;9.93;7.00;;;9.80;1.00;;;;;;5092977;28;20811;-63
2022/03/14 10:27:40;;;;;;;7.73;6.50;;;9.70;1.00;;;;;;5097832;28;20506;-63
2022/03/14 10:30:29;;;;;;;9.07;6.37;;;9.80;1.00;;;;;;5097000;28;20457;-63
2022/03/14 10:33:14;;;;;;;9.03;7.20;;;9.70;1.00;;;;;;5087226;28;20544;-63
2022/03/14 10:35:48;;;;;;;9.10;6.47;;;9.80;1.00;;;;;;5076798;28;20469;-60
2022/03/14 10:38:26;;;;;;;11.80;8.30;;;9.60;1.00;;;;;;5083536;28;20492;-62
2022/03/14 10:40:57;;;;;;;10.27;6.77;;;9.50;1.00;;;;;;5076999;28;20552;-62
2022/03/14 10:43:26;;;;;;;8.43;6.43;;;9.40;1.00;;;;;;5084932;28;20468;-60
2022/03/14 10:45:58;;;;;;;7.27;6.53;;;9.50;1.00;;;;;;5087918;28;21259;-63
2022/03/14 10:48:43;;;;;;;8.50;6.57;;;9.40;1.00;;;;;;5092475;28;20468;-62
2022/03/14 10:51:17;;;;;;;11.40;9.00;;;9.40;1.00;;;;;;5093304;28;20479;-62
2022/03/14 10:53:59;;;;;;;9.70;7.50;;;9.40;1.00;;;;;;5080398;28;20469;-62
2022/03/14 10:56:30;;;;;;;9.07;6.70;;;9.50;1.00;;;;;;5093644;28;20941;-62
2022/03/14 10:59:08;;;;;;;11.30;6.90;;;9.70;1.00;;;;;;5096882;28;20813;-61
2022/03/14 11:01:58;;;;;;;8.63;7.40;;;9.90;1.00;;;;;;5096795;28;20829;-62
2022/03/14 11:04:32;;;;;;;12.10;6.50;;;10.20;1.00;;;;;;5096853;28;20500;-61
2022/03/14 11:07:07;;;;;;;8.00;6.90;;;10.70;1.00;;;;;;5096745;28;20459;-61
2022/03/14 11:09:48;;;;;;;6.50;5.70;;;11.10;1.00;;;;;;5096655;28;20460;-61
2022/03/14 11:12:18;;;;;;;11.03;6.83;;;11.30;1.00;;;;;;5096914;28;20502;-62
2022/03/14 11:14:53;;;;;;;8.90;6.33;;;11.20;99.90;;;;;;5096640;28;20457;-59
2022/03/14 11:17:23;;;;;;;9.33;6.87;;;11.40;99.90;;;;;;5092511;28;20465;-61
2022/03/14 11:19:54;;;;;;;8.20;7.40;;;11.40;99.90;;;;;;5093740;28;20522;-62
2022/03/14 11:22:27;;;;;;;10.47;8.60;;;11.50;99.90;;;;;;5088513;28;20493;-62
2022/03/14 11:24:57;;;;;;;8.90;7.67;;;11.70;99.90;;;;;;5076758;28;20493;-60
2022/03/14 11:27:25;;;;;;;10.70;8.70;;;12.40;99.90;;;;;;5089328;28;20529;-61
2022/03/14 11:29:56;;;;;;;10.83;8.00;;;13.00;99.90;;;;;;5092854;28;20517;-60
2022/03/14 11:32:31;;;;;;;9.90;7.60;;;13.50;99.90;;;;;;5091464;28;20565;-60
2022/03/14 11:35:00;;;;;;;9.10;8.00;;;14.00;99.90;;;;;;5088749;28;20487;-61
2022/03/14 11:37:31;;;;;;;9.17;7.50;;;14.20;99.90;;;;;;5095644;28;20511;-59
2022/03/14 11:40:00;;;;;;;8.63;7.73;;;14.00;99.90;;;;;;5096775;28;20972;-57
2022/03/14 11:42:28;;;;;;;8.70;7.70;;;13.80;99.90;;;;;;5085578;28;20553;-58
2022/03/14 11:44:56;;;;;;;7.33;6.50;;;14.20;99.90;;;;;;5094056;28;20545;-59
2022/03/14 11:47:27;;;;;;;7.00;6.40;;;14.50;99.90;;;;;;5076173;28;20472;-59
2022/03/14 11:49:55;;;;;;;8.47;6.40;;;14.50;99.90;;;;;;5083077;28;20510;-59
2022/03/14 11:52:36;;;;;;;8.17;7.00;;;14.50;99.90;;;;;;5089387;28;20460;-59
2022/03/14 11:55:19;;;;;;;9.57;6.20;;;14.30;99.90;;;;;;5098794;28;20813;-59
2022/03/14 11:57:50;;;;;;;7.30;6.37;;;14.00;99.90;;;;;;5097926;28;20632;-58
2022/03/14 12:00:38;;;;;;;6.70;6.10;;;13.70;99.90;;;;;;5081986;28;20575;-57
2022/03/14 12:03:35;;;;;;;7.20;6.50;;;13.50;99.90;;;;;;5091150;28;20582;-58
2022/03/14 12:06:04;;;;;;;7.30;6.20;;;12.80;99.90;;;;;;5087615;28;20885;-58
2022/03/14 12:09:04;;;;;;;10.33;7.27;;;12.60;99.90;;;;;;5094775;28;20461;-58
2022/03/14 12:11:53;;;;;;;7.90;6.10;;;12.20;99.90;;;;;;5079627;28;20464;-55
2022/03/14 12:14:44;;;;;;;8.77;6.40;;;11.90;99.90;;;;;;5080236;28;20480;-50
2022/03/14 12:17:24;;;;;;;9.90;6.23;;;11.70;99.90;;;;;;5079733;28;20461;-54
2022/03/14 12:20:03;;;;;;;7.93;6.73;;;11.70;99.90;;;;;;5079647;28;20464;-59
2022/03/14 12:22:49;;;;;;;8.67;7.00;;;11.80;99.90;;;;;;5095444;28;20463;-58
2022/03/14 12:25:42;;;;;;;11.70;7.07;;;12.20;99.90;;;;;;5095167;28;20982;-53
2022/03/14 12:28:32;;;;;;;8.23;6.20;;;12.90;99.90;;;;;;5099182;28;20464;-54
2022/03/14 12:31:19;;;;;;;9.77;7.20;;;13.10;99.90;;;;;;5088888;28;20820;-59
2022/03/14 12:33:49;;;;;;;7.10;6.40;;;12.90;99.90;;;;;;5079383;28;20469;-55
2022/03/14 12:36:49;;;;;;;13.63;7.10;;;12.90;99.90;;;;;;5078659;28;20465;-56
2022/03/14 12:39:31;;;;;;;9.90;6.30;;;12.40;99.90;;;;;;5015123;28;20517;-60
2022/03/14 12:42:23;;;;;;;7.80;5.97;;;11.90;99.90;;;;;;5007112;28;20805;-58
2022/03/14 12:45:19;;;;;;;10.77;6.73;;;11.60;99.90;;;;;;5056409;28;20531;-60
2022/03/14 12:48:14;;;;;;;8.33;6.67;;;11.50;99.90;;;;;;5077800;28;20457;-58
2022/03/14 12:51:04;;;;;;;6.07;5.33;;;11.30;99.90;;;;;;5078306;28;20925;-59
2022/03/14 12:53:58;;;;;;;8.93;6.70;;;11.30;99.90;;;;;;5079705;28;20728;-60
2022/03/14 12:56:32;;;;;;;7.23;6.20;;;11.30;99.90;;;;;;5096499;28;20456;-59
2022/03/14 12:59:08;;;;;;;11.83;6.50;;;11.30;99.90;;;;;;5096939;28;20487;-61
2022/03/14 13:01:41;;;;;;;11.03;6.40;;;11.30;99.90;;;;;;5078570;28;20457;-60
2022/03/14 13:04:23;;;;;;;6.60;6.00;;;11.10;99.90;;;;;;5094966;28;20496;-60
2022/03/14 13:07:00;;;;;;;7.93;6.00;;;11.10;99.90;;;;;;5081171;28;20493;-60
2022/03/14 13:09:31;;;;;;;7.77;4.60;;;11.00;99.90;;;;;;5078584;28;20465;-60
2022/03/14 13:12:12;;;;;;;6.90;5.47;;;10.80;99.90;;;;;;5094590;28;20471;-58
2022/03/14 13:14:43;;;;;;;6.50;4.63;;;10.70;99.90;;;;;;5087376;28;20536;-60
2022/03/14 13:17:23;;;;;;;8.90;4.57;;;10.70;99.90;;;;;;5097509;28;20460;-58